Terminal Aerodrome Forecast
Issued by NWS Goodland, KS

Home | Current Version | Previous Version | Text Only | Print | Product List | Glossary On
Versions: 1 2 3 4 5 6 7 8 9 10 11 12 13 14 15 16 17 18 19 20 21 22 23
000
FTUS43 KGLD 152329
TAFGLD
TAF
KGLD 152329Z 1600/1624 VRB04KT P6SM SKC
     FM160300 16008KT P6SM SCT020
      TEMPO 1605/1607 BKN020
     FM160700 18007KT 6SM BR OVC015
     FM161000 19009KT 3SM BR OVC006
      TEMPO 1611/1615 1/2SM FG BKN002
     FM161700 20012KT P6SM SCT030=

USA.gov is the U.S. government's official web portal to all federal, state and local government web resources and services.